sensor_id;sensor_type;location;lat;lon;timestamp;pressure;altitude;pressure_sealevel;temperature;humidity
75497;BME280;64074;47.540;19.072;2023-04-01T00:02:40;99182.81;;;12.09;67.17
75497;BME280;64074;47.540;19.072;2023-04-01T00:05:45;99186.97;;;11.94;66.98
75497;BME280;64074;47.540;19.072;2023-04-01T00:08:48;99184.53;;;12.13;66.63
75497;BME280;64074;47.540;19.072;2023-04-01T00:11:51;99189.59;;;12.02;65.56
75497;BME280;64074;47.540;19.072;2023-04-01T00:14:54;99200.78;;;12.01;65.77
75497;BME280;64074;47.540;19.072;2023-04-01T00:17:57;99194.44;;;11.97;66.15
75497;BME280;64074;47.540;19.072;2023-04-01T00:21:01;99197.31;;;11.71;67.41
75497;BME280;64074;47.540;19.072;2023-04-01T00:24:04;99183.75;;;11.71;68.04
75497;BME280;64074;47.540;19.072;2023-04-01T00:27:07;99187.59;;;11.70;67.53
75497;BME280;64074;47.540;19.072;2023-04-01T00:30:11;99190.50;;;11.65;67.12
75497;BME280;64074;47.540;19.072;2023-04-01T00:33:15;99179.66;;;11.65;68.10
75497;BME280;64074;47.540;19.072;2023-04-01T00:36:20;99192.25;;;11.61;68.69
75497;BME280;64074;47.540;19.072;2023-04-01T00:39:29;99186.41;;;11.80;67.66
75497;BME280;64074;47.540;19.072;2023-04-01T00:42:33;99179.41;;;11.79;67.95
75497;BME280;64074;47.540;19.072;2023-04-01T00:45:39;99173.41;;;11.44;68.80
75497;BME280;64074;47.540;19.072;2023-04-01T00:48:51;99179.16;;;11.63;68.05
75497;BME280;64074;47.540;19.072;2023-04-01T00:51:56;99173.56;;;11.68;66.93
75497;BME280;64074;47.540;19.072;2023-04-01T00:55:01;99171.03;;;11.84;66.81
75497;BME280;64074;47.540;19.072;2023-04-01T00:58:08;99168.38;;;11.75;66.88
75497;BME280;64074;47.540;19.072;2023-04-01T01:01:13;99159.84;;;11.85;68.05
75497;BME280;64074;47.540;19.072;2023-04-01T01:04:24;99167.50;;;11.62;67.62
75497;BME280;64074;47.540;19.072;2023-04-01T01:11:10;99168.72;;;11.74;67.81
75497;BME280;64074;47.540;19.072;2023-04-01T01:21:08;99158.59;;;11.32;68.30
75497;BME280;64074;47.540;19.072;2023-04-01T01:24:41;99160.34;;;11.58;67.76
75497;BME280;64074;47.540;19.072;2023-04-01T01:28:15;99161.69;;;11.52;67.80
75497;BME280;64074;47.540;19.072;2023-04-01T01:31:25;99160.44;;;11.70;67.34
75497;BME280;64074;47.540;19.072;2023-04-01T01:34:46;99151.56;;;11.82;66.46
75497;BME280;64074;47.540;19.072;2023-04-01T01:37:57;99156.34;;;11.85;66.01
75497;BME280;64074;47.540;19.072;2023-04-01T01:41:05;99158.25;;;11.84;65.37
75497;BME280;64074;47.540;19.072;2023-04-01T01:44:11;99154.41;;;11.85;65.99
75497;BME280;64074;47.540;19.072;2023-04-01T01:47:16;99162.97;;;11.96;64.91
75497;BME280;64074;47.540;19.072;2023-04-01T01:50:22;99164.91;;;11.95;65.59
75497;BME280;64074;47.540;19.072;2023-04-01T01:53:27;99161.72;;;11.93;65.46
75497;BME280;64074;47.540;19.072;2023-04-01T01:56:30;99158.38;;;12.09;66.89
75497;BME280;64074;47.540;19.072;2023-04-01T01:59:37;99160.59;;;11.94;65.97
75497;BME280;64074;47.540;19.072;2023-04-01T02:02:44;99156.84;;;11.57;66.54
75497;BME280;64074;47.540;19.072;2023-04-01T02:05:50;99144.41;;;11.56;66.37
75497;BME280;64074;47.540;19.072;2023-04-01T02:08:57;99149.25;;;11.71;66.13
75497;BME280;64074;47.540;19.072;2023-04-01T02:12:07;99148.31;;;11.67;65.24
75497;BME280;64074;47.540;19.072;2023-04-01T02:15:16;99140.81;;;11.64;64.78
75497;BME280;64074;47.540;19.072;2023-04-01T02:18:21;99147.19;;;11.68;63.93
75497;BME280;64074;47.540;19.072;2023-04-01T02:21:28;99139.47;;;11.79;63.94
75497;BME280;64074;47.540;19.072;2023-04-01T02:24:35;99140.25;;;11.80;63.40
75497;BME280;64074;47.540;19.072;2023-04-01T02:27:39;99135.06;;;11.87;63.32
75497;BME280;64074;47.540;19.072;2023-04-01T02:30:44;99134.94;;;11.83;63.60
75497;BME280;64074;47.540;19.072;2023-04-01T02:33:48;99136.75;;;11.79;62.85
75497;BME280;64074;47.540;19.072;2023-04-01T02:36:51;99126.94;;;11.66;63.74
75497;BME280;64074;47.540;19.072;2023-04-01T02:40:03;99130.91;;;11.68;63.62
75497;BME280;64074;47.540;19.072;2023-04-01T02:43:08;99120.72;;;11.65;63.82
75497;BME280;64074;47.540;19.072;2023-04-01T02:46:11;99122.22;;;11.54;63.89
75497;BME280;64074;47.540;19.072;2023-04-01T02:49:15;99119.97;;;11.56;63.74
75497;BME280;64074;47.540;19.072;2023-04-01T02:52:17;99127.25;;;11.64;63.92
75497;BME280;64074;47.540;19.072;2023-04-01T02:55:20;99126.84;;;11.54;64.39
75497;BME280;64074;47.540;19.072;2023-04-01T02:58:23;99129.38;;;11.59;63.72
75497;BME280;64074;47.540;19.072;2023-04-01T03:01:26;99138.31;;;11.59;64.08
75497;BME280;64074;47.540;19.072;2023-04-01T03:04:29;99137.16;;;11.39;64.57
75497;BME280;64074;47.540;19.072;2023-04-01T03:07:33;99136.63;;;11.25;64.68
75497;BME280;64074;47.540;19.072;2023-04-01T03:10:36;99132.94;;;11.30;65.00
75497;BME280;64074;47.540;19.072;2023-04-01T03:13:40;99139.81;;;11.27;64.97
75497;BME280;64074;47.540;19.072;2023-04-01T03:16:44;99122.81;;;11.18;65.84
75497;BME280;64074;47.540;19.072;2023-04-01T03:19:47;99125.78;;;11.25;65.28
75497;BME280;64074;47.540;19.072;2023-04-01T03:22:50;99116.84;;;11.25;65.29
75497;BME280;64074;47.540;19.072;2023-04-01T03:25:53;99124.47;;;11.31;64.96
75497;BME280;64074;47.540;19.072;2023-04-01T03:28:56;99126.78;;;11.21;65.40
75497;BME280;64074;47.540;19.072;2023-04-01T03:31:58;99136.19;;;11.15;65.64
75497;BME280;64074;47.540;19.072;2023-04-01T03:35:02;99137.81;;;11.16;65.17
75497;BME280;64074;47.540;19.072;2023-04-01T03:38:04;99145.25;;;11.27;64.39
75497;BME280;64074;47.540;19.072;2023-04-01T03:41:12;99147.50;;;11.25;64.14
75497;BME280;64074;47.540;19.072;2023-04-01T03:44:16;99151.41;;;11.36;63.17
75497;BME280;64074;47.540;19.072;2023-04-01T03:47:23;99157.44;;;11.42;63.31
75497;BME280;64074;47.540;19.072;2023-04-01T03:50:26;99165.44;;;11.38;64.15
75497;BME280;64074;47.540;19.072;2023-04-01T03:53:28;99165.25;;;11.44;64.26
75497;BME280;64074;47.540;19.072;2023-04-01T03:56:34;99162.69;;;11.47;65.20
75497;BME280;64074;47.540;19.072;2023-04-01T03:59:38;99164.22;;;11.27;64.28
75497;BME280;64074;47.540;19.072;2023-04-01T04:02:41;99167.81;;;11.10;64.86
75497;BME280;64074;47.540;19.072;2023-04-01T04:05:49;99166.22;;;11.18;65.25
75497;BME280;64074;47.540;19.072;2023-04-01T04:08:53;99172.97;;;11.03;65.44
75497;BME280;64074;47.540;19.072;2023-04-01T04:11:57;99162.78;;;11.00;65.59
75497;BME280;64074;47.540;19.072;2023-04-01T04:15:01;99161.34;;;11.03;65.83
75497;BME280;64074;47.540;19.072;2023-04-01T04:18:05;99170.78;;;10.97;65.60
75497;BME280;64074;47.540;19.072;2023-04-01T04:21:12;99167.13;;;10.93;65.99
75497;BME280;64074;47.540;19.072;2023-04-01T04:24:16;99167.59;;;10.95;66.33
75497;BME280;64074;47.540;19.072;2023-04-01T04:27:45;99166.16;;;10.97;66.30
75497;BME280;64074;47.540;19.072;2023-04-01T04:30:50;99170.97;;;10.92;66.18
75497;BME280;64074;47.540;19.072;2023-04-01T04:33:53;99171.13;;;10.87;66.07
75497;BME280;64074;47.540;19.072;2023-04-01T04:36:56;99159.34;;;10.83;65.86
75497;BME280;64074;47.540;19.072;2023-04-01T04:40:05;99160.00;;;10.79;65.83
75497;BME280;64074;47.540;19.072;2023-04-01T04:43:13;99160.75;;;10.89;65.60
75497;BME280;64074;47.540;19.072;2023-04-01T04:46:18;99156.16;;;10.81;65.44
75497;BME280;64074;47.540;19.072;2023-04-01T04:49:23;99154.53;;;10.88;65.58
75497;BME280;64074;47.540;19.072;2023-04-01T04:52:26;99157.88;;;10.94;65.61
75497;BME280;64074;47.540;19.072;2023-04-01T04:55:28;99162.91;;;10.74;65.93
75497;BME280;64074;47.540;19.072;2023-04-01T04:58:51;99158.59;;;10.73;66.14
75497;BME280;64074;47.540;19.072;2023-04-01T05:01:58;99151.06;;;10.79;66.33
75497;BME280;64074;47.540;19.072;2023-04-01T05:05:03;99157.00;;;10.72;66.84
75497;BME280;64074;47.540;19.072;2023-04-01T05:08:06;99157.81;;;10.64;66.71
75497;BME280;64074;47.540;19.072;2023-04-01T05:11:18;99163.50;;;10.80;66.06
75497;BME280;64074;47.540;19.072;2023-04-01T05:14:21;99161.25;;;10.82;66.20
75497;BME280;64074;47.540;19.072;2023-04-01T05:17:32;99164.78;;;10.83;65.86
75497;BME280;64074;47.540;19.072;2023-04-01T05:20:38;99158.56;;;10.82;64.97
75497;BME280;64074;47.540;19.072;2023-04-01T05:23:41;99159.47;;;10.95;65.59
75497;BME280;64074;47.540;19.072;2023-04-01T05:26:45;99160.03;;;11.09;64.42
75497;BME280;64074;47.540;19.072;2023-04-01T05:29:48;99165.25;;;11.14;64.28
75497;BME280;64074;47.540;19.072;2023-04-01T05:33:25;99170.38;;;11.16;64.31
75497;BME280;64074;47.540;19.072;2023-04-01T05:36:30;99169.19;;;11.25;64.25
75497;BME280;64074;47.540;19.072;2023-04-01T05:39:39;99161.56;;;11.19;64.26
75497;BME280;64074;47.540;19.072;2023-04-01T05:42:43;99169.06;;;11.22;63.84
75497;BME280;64074;47.540;19.072;2023-04-01T05:45:48;99168.22;;;11.51;62.60
75497;BME280;64074;47.540;19.072;2023-04-01T05:49:27;99172.34;;;11.57;62.15
75497;BME280;64074;47.540;19.072;2023-04-01T05:52:31;99176.50;;;11.54;61.85
75497;BME280;64074;47.540;19.072;2023-04-01T05:55:35;99176.31;;;11.59;62.52
75497;BME280;64074;47.540;19.072;2023-04-01T05:58:40;99174.28;;;11.77;61.81
75497;BME280;64074;47.540;19.072;2023-04-01T06:01:43;99168.34;;;11.84;61.31
75497;BME280;64074;47.540;19.072;2023-04-01T06:04:47;99170.31;;;11.75;61.06
75497;BME280;64074;47.540;19.072;2023-04-01T06:07:58;99179.47;;;11.91;60.95
75497;BME280;64074;47.540;19.072;2023-04-01T06:34:29;99177.66;;;12.16;59.69
75497;BME280;64074;47.540;19.072;2023-04-01T06:48:29;99188.19;;;11.76;61.25
75497;BME280;64074;47.540;19.072;2023-04-01T06:52:08;99197.50;;;11.95;59.68
75497;BME280;64074;47.540;19.072;2023-04-01T06:59:15;99189.13;;;12.33;59.21
75497;BME280;64074;47.540;19.072;2023-04-01T07:02:31;99199.84;;;12.51;58.96
75497;BME280;64074;47.540;19.072;2023-04-01T07:05:37;99190.13;;;12.62;58.78
75497;BME280;64074;47.540;19.072;2023-04-01T07:08:43;99201.63;;;12.92;58.53
75497;BME280;64074;47.540;19.072;2023-04-01T07:11:47;99190.69;;;12.55;57.40
75497;BME280;64074;47.540;19.072;2023-04-01T07:15:39;99188.78;;;12.23;59.28
75497;BME280;64074;47.540;19.072;2023-04-01T07:18:56;99193.91;;;12.70;57.20
75497;BME280;64074;47.540;19.072;2023-04-01T07:25:44;99180.88;;;12.87;57.48
75497;BME280;64074;47.540;19.072;2023-04-01T07:29:12;99193.03;;;13.14;56.58
75497;BME280;64074;47.540;19.072;2023-04-01T07:35:55;99195.84;;;13.06;56.79
75497;BME280;64074;47.540;19.072;2023-04-01T07:39:12;99195.75;;;13.14;56.44
75497;BME280;64074;47.540;19.072;2023-04-01T07:46:21;99203.03;;;13.22;56.06
75497;BME280;64074;47.540;19.072;2023-04-01T07:59:30;99203.50;;;13.24;55.29
75497;BME280;64074;47.540;19.072;2023-04-01T08:09:43;99209.72;;;13.49;55.11
75497;BME280;64074;47.540;19.072;2023-04-01T08:13:12;99206.31;;;13.28;55.92
75497;BME280;64074;47.540;19.072;2023-04-01T08:16:50;99214.94;;;13.30;54.77
75497;BME280;64074;47.540;19.072;2023-04-01T08:20:17;99218.63;;;13.13;57.00
75497;BME280;64074;47.540;19.072;2023-04-01T08:26:35;99199.41;;;13.95;54.58
75497;BME280;64074;47.540;19.072;2023-04-01T08:29:50;99207.09;;;14.33;53.90
75497;BME280;64074;47.540;19.072;2023-04-01T08:32:57;99201.91;;;14.56;52.42
75497;BME280;64074;47.540;19.072;2023-04-01T08:36:21;99203.34;;;14.66;52.27
75497;BME280;64074;47.540;19.072;2023-04-01T08:39:51;99206.47;;;14.24;52.62
75497;BME280;64074;47.540;19.072;2023-04-01T08:43:59;99203.91;;;14.15;53.08
75497;BME280;64074;47.540;19.072;2023-04-01T08:57:44;99215.88;;;13.99;54.31
75497;BME280;64074;47.540;19.072;2023-04-01T09:31:54;99200.78;;;14.73;52.30
75497;BME280;64074;47.540;19.072;2023-04-01T09:38:59;99209.03;;;14.05;53.94
75497;BME280;64074;47.540;19.072;2023-04-01T09:46:11;99206.66;;;14.03;54.03
75497;BME280;64074;47.540;19.072;2023-04-01T09:56:33;99214.56;;;13.68;54.78
75497;BME280;64074;47.540;19.072;2023-04-01T10:10:53;99210.34;;;14.23;53.51
75497;BME280;64074;47.540;19.072;2023-04-01T10:21:29;99213.09;;;13.71;55.17
75497;BME280;64074;47.540;19.072;2023-04-01T10:32:32;99219.09;;;13.89;55.21
75497;BME280;64074;47.540;19.072;2023-04-01T10:51:20;99209.91;;;14.09;54.11
75497;BME280;64074;47.540;19.072;2023-04-01T10:58:16;99197.44;;;14.80;52.29
75497;BME280;64074;47.540;19.072;2023-04-01T11:09:44;99199.03;;;14.96;51.98
75497;BME280;64074;47.540;19.072;2023-04-01T11:13:08;99201.09;;;14.56;52.78
75497;BME280;64074;47.540;19.072;2023-04-01T11:23:37;99191.75;;;15.51;48.24
75497;BME280;64074;47.540;19.072;2023-04-01T11:30:53;99191.88;;;14.44;51.18
75497;BME280;64074;47.540;19.072;2023-04-01T11:44:29;99217.44;;;14.40;51.87
75497;BME280;64074;47.540;19.072;2023-04-01T11:57:48;99215.97;;;14.02;53.67
75497;BME280;64074;47.540;19.072;2023-04-01T12:04:20;99217.38;;;14.24;51.44
75497;BME280;64074;47.540;19.072;2023-04-01T12:13:59;99207.50;;;15.23;48.53
75497;BME280;64074;47.540;19.072;2023-04-01T12:20:39;99208.88;;;15.48;47.81
75497;BME280;64074;47.540;19.072;2023-04-01T12:27:28;99209.97;;;14.96;49.06
75497;BME280;64074;47.540;19.072;2023-04-01T12:30:54;99212.44;;;15.01;49.79
75497;BME280;64074;47.540;19.072;2023-04-01T12:37:45;99212.44;;;15.01;49.39
75497;BME280;64074;47.540;19.072;2023-04-01T12:47:44;99214.28;;;16.57;45.25
75497;BME280;64074;47.540;19.072;2023-04-01T12:57:42;99199.13;;;16.21;44.84
75497;BME280;64074;47.540;19.072;2023-04-01T13:08:00;99189.88;;;18.60;40.53
75497;BME280;64074;47.540;19.072;2023-04-01T13:14:53;99184.56;;;19.80;37.13
75497;BME280;64074;47.540;19.072;2023-04-01T13:21:44;99187.13;;;20.28;36.27
75497;BME280;64074;47.540;19.072;2023-04-01T13:28:25;99181.94;;;20.09;36.17
75497;BME280;64074;47.540;19.072;2023-04-01T13:38:48;99183.34;;;21.00;34.67
75497;BME280;64074;47.540;19.072;2023-04-01T13:42:19;99184.53;;;21.13;33.28
75497;BME280;64074;47.540;19.072;2023-04-01T13:49:06;99202.25;;;21.09;34.23
75497;BME280;64074;47.540;19.072;2023-04-01T13:52:17;99197.13;;;21.57;33.16
75497;BME280;64074;47.540;19.072;2023-04-01T14:02:45;99191.91;;;21.91;32.81
75497;BME280;64074;47.540;19.072;2023-04-01T14:16:03;99192.06;;;22.50;32.10
75497;BME280;64074;47.540;19.072;2023-04-01T14:19:31;99189.47;;;22.91;31.44
75497;BME280;64074;47.540;19.072;2023-04-01T14:23:07;99198.09;;;22.34;31.74
75497;BME280;64074;47.540;19.072;2023-04-01T14:43:34;99197.28;;;22.37;31.33
75497;BME280;64074;47.540;19.072;2023-04-01T14:50:09;99176.75;;;22.38;31.54
75497;BME280;64074;47.540;19.072;2023-04-01T14:56:44;99181.91;;;23.44;30.17
75497;BME280;64074;47.540;19.072;2023-04-01T14:59:51;99193.53;;;20.64;34.05
75497;BME280;64074;47.540;19.072;2023-04-01T15:20:25;99202.06;;;17.95;41.02
75497;BME280;64074;47.540;19.072;2023-04-01T15:24:00;99206.56;;;17.31;41.89
75497;BME280;64074;47.540;19.072;2023-04-01T15:38:20;99209.63;;;17.26;41.28
75497;BME280;64074;47.540;19.072;2023-04-01T15:44:02;99205.66;;;17.46;40.77
75497;BME280;64074;47.540;19.072;2023-04-01T15:47:27;99211.19;;;17.50;40.81
75497;BME280;64074;47.540;19.072;2023-04-01T16:04:17;99217.88;;;17.03;40.19
75497;BME280;64074;47.540;19.072;2023-04-01T16:11:34;99223.38;;;16.22;40.13
75497;BME280;64074;47.540;19.072;2023-04-01T16:20:49;99221.44;;;16.42;39.69
75497;BME280;64074;47.540;19.072;2023-04-01T16:23:59;99236.81;;;16.50;39.75
75497;BME280;64074;47.540;19.072;2023-04-01T16:30:37;99238.34;;;16.67;39.72
75497;BME280;64074;47.540;19.072;2023-04-01T16:37:07;99246.03;;;16.81;40.11
75497;BME280;64074;47.540;19.072;2023-04-01T16:40:42;99243.97;;;16.74;41.38
75497;BME280;64074;47.540;19.072;2023-04-01T16:43:56;99250.28;;;16.78;41.68
75497;BME280;64074;47.540;19.072;2023-04-01T16:47:12;99250.47;;;16.66;42.18
75497;BME280;64074;47.540;19.072;2023-04-01T16:50:27;99251.06;;;16.59;43.00
75497;BME280;64074;47.540;19.072;2023-04-01T16:53:47;99250.22;;;16.55;43.49
75497;BME280;64074;47.540;19.072;2023-04-01T16:57:23;99251.72;;;16.34;43.29
75497;BME280;64074;47.540;19.072;2023-04-01T17:00:27;99253.22;;;15.92;44.89
75497;BME280;64074;47.540;19.072;2023-04-01T17:03:44;99252.16;;;15.97;44.90
75497;BME280;64074;47.540;19.072;2023-04-01T17:16:54;99274.41;;;15.80;45.90
75497;BME280;64074;47.540;19.072;2023-04-01T17:23:30;99275.75;;;15.54;46.53
75497;BME280;64074;47.540;19.072;2023-04-01T17:26:47;99280.50;;;15.57;46.75
75497;BME280;64074;47.540;19.072;2023-04-01T17:30:36;99285.19;;;15.41;47.10
75497;BME280;64074;47.540;19.072;2023-04-01T17:40:57;99295.13;;;15.33;47.23
75497;BME280;64074;47.540;19.072;2023-04-01T17:51:08;99298.66;;;15.18;46.96
75497;BME280;64074;47.540;19.072;2023-04-01T18:07:32;99329.19;;;14.92;48.70
75497;BME280;64074;47.540;19.072;2023-04-01T18:10:54;99326.69;;;14.87;48.57
75497;BME280;64074;47.540;19.072;2023-04-01T18:20:46;99335.13;;;14.54;48.84
75497;BME280;64074;47.540;19.072;2023-04-01T18:23:58;99342.19;;;14.31;49.48
75497;BME280;64074;47.540;19.072;2023-04-01T18:27:15;99346.72;;;14.51;49.09
75497;BME280;64074;47.540;19.072;2023-04-01T18:30:28;99348.22;;;14.49;49.32
75497;BME280;64074;47.540;19.072;2023-04-01T18:37:11;99360.94;;;14.44;49.25
75497;BME280;64074;47.540;19.072;2023-04-01T18:43:33;99365.03;;;14.38;50.19
75497;BME280;64074;47.540;19.072;2023-04-01T18:50:29;99367.97;;;14.33;49.95
75497;BME280;64074;47.540;19.072;2023-04-01T18:53:48;99373.44;;;14.33;50.06
75497;BME280;64074;47.540;19.072;2023-04-01T18:57:13;99375.84;;;14.23;50.48
75497;BME280;64074;47.540;19.072;2023-04-01T19:00:21;99383.91;;;14.19;50.80
75497;BME280;64074;47.540;19.072;2023-04-01T19:03:43;99378.47;;;14.07;51.39
75497;BME280;64074;47.540;19.072;2023-04-01T19:06:51;99372.47;;;13.89;51.89
75497;BME280;64074;47.540;19.072;2023-04-01T19:10:00;99367.13;;;13.93;51.72
75497;BME280;64074;47.540;19.072;2023-04-01T19:20:45;99374.03;;;13.66;53.52
75497;BME280;64074;47.540;19.072;2023-04-01T19:24:03;99370.88;;;13.64;54.37
75497;BME280;64074;47.540;19.072;2023-04-01T19:30:54;99384.69;;;13.59;53.78
75497;BME280;64074;47.540;19.072;2023-04-01T19:40:44;99399.16;;;13.38;54.00
75497;BME280;64074;47.540;19.072;2023-04-01T19:43:58;99397.91;;;13.36;53.74
75497;BME280;64074;47.540;19.072;2023-04-01T19:50:40;99404.69;;;13.30;53.41
75497;BME280;64074;47.540;19.072;2023-04-01T20:00:51;99407.75;;;13.07;54.85
75497;BME280;64074;47.540;19.072;2023-04-01T20:03:58;99411.16;;;13.04;54.58
75497;BME280;64074;47.540;19.072;2023-04-01T20:07:30;99407.72;;;12.95;55.45
75497;BME280;64074;47.540;19.072;2023-04-01T20:10:49;99407.28;;;12.93;55.20
75497;BME280;64074;47.540;19.072;2023-04-01T20:17:26;99405.41;;;12.43;56.52
75497;BME280;64074;47.540;19.072;2023-04-01T20:20:34;99405.47;;;12.55;56.74
75497;BME280;64074;47.540;19.072;2023-04-01T20:23:55;99404.47;;;12.60;57.39
75497;BME280;64074;47.540;19.072;2023-04-01T20:27:20;99402.38;;;12.66;56.18
75497;BME280;64074;47.540;19.072;2023-04-01T20:30:43;99399.84;;;12.60;56.86
75497;BME280;64074;47.540;19.072;2023-04-01T20:34:06;99410.00;;;12.51;57.05
75497;BME280;64074;47.540;19.072;2023-04-01T20:41:02;99405.28;;;12.40;57.42
75497;BME280;64074;47.540;19.072;2023-04-01T20:44:42;99409.97;;;12.30;57.69
75497;BME280;64074;47.540;19.072;2023-04-01T21:01:41;99428.72;;;12.23;58.36
75497;BME280;64074;47.540;19.072;2023-04-01T21:12:13;99441.69;;;12.18;59.45
75497;BME280;64074;47.540;19.072;2023-04-01T21:25:22;99440.84;;;11.96;60.04
75497;BME280;64074;47.540;19.072;2023-04-01T21:31:59;99450.75;;;11.92;60.37
75497;BME280;64074;47.540;19.072;2023-04-01T21:35:23;99459.38;;;11.94;60.61
75497;BME280;64074;47.540;19.072;2023-04-01T22:06:50;99455.34;;;12.00;56.60
75497;BME280;64074;47.540;19.072;2023-04-01T22:23:20;99471.41;;;11.67;57.85
75497;BME280;64074;47.540;19.072;2023-04-01T22:26:33;99476.84;;;11.59;58.86
75497;BME280;64074;47.540;19.072;2023-04-01T22:30:10;99470.78;;;11.62;58.71
75497;BME280;64074;47.540;19.072;2023-04-01T22:37:03;99481.63;;;11.62;59.10
75497;BME280;64074;47.540;19.072;2023-04-01T22:40:22;99481.69;;;11.45;59.38
75497;BME280;64074;47.540;19.072;2023-04-01T22:49:46;99500.69;;;11.36;59.85
75497;BME280;64074;47.540;19.072;2023-04-01T22:53:31;99498.63;;;11.42;59.64
75497;BME280;64074;47.540;19.072;2023-04-01T22:56:43;99508.16;;;11.39;60.04
75497;BME280;64074;47.540;19.072;2023-04-01T23:00:00;99509.47;;;11.24;60.64
75497;BME280;64074;47.540;19.072;2023-04-01T23:03:28;99511.88;;;11.17;60.44
75497;BME280;64074;47.540;19.072;2023-04-01T23:06:37;99513.94;;;11.03;60.83
75497;BME280;64074;47.540;19.072;2023-04-01T23:09:42;99511.84;;;11.08;61.35
75497;BME280;64074;47.540;19.072;2023-04-01T23:12:47;99517.94;;;10.97;61.64
75497;BME280;64074;47.540;19.072;2023-04-01T23:15:52;99520.94;;;11.04;61.49
75497;BME280;64074;47.540;19.072;2023-04-01T23:19:17;99516.16;;;11.01;61.32
75497;BME280;64074;47.540;19.072;2023-04-01T23:22:33;99528.75;;;10.88;61.93
75497;BME280;64074;47.540;19.072;2023-04-01T23:28:55;99533.63;;;10.60;62.92
75497;BME280;64074;47.540;19.072;2023-04-01T23:32:00;99524.91;;;10.81;62.53
75497;BME280;64074;47.540;19.072;2023-04-01T23:35:15;99529.81;;;10.61;63.31
75497;BME280;64074;47.540;19.072;2023-04-01T23:38:25;99538.38;;;10.46;63.39
75497;BME280;64074;47.540;19.072;2023-04-01T23:41:30;99520.44;;;10.67;63.25
75497;BME280;64074;47.540;19.072;2023-04-01T23:44:35;99521.84;;;10.65;63.31
75497;BME280;64074;47.540;19.072;2023-04-01T23:47:40;99526.81;;;10.80;62.95
75497;BME280;64074;47.540;19.072;2023-04-01T23:50:45;99529.06;;;10.78;63.14
75497;BME280;64074;47.540;19.072;2023-04-01T23:54:03;99537.50;;;10.68;63.17
75497;BME280;64074;47.540;19.072;2023-04-01T23:57:13;99534.94;;;10.71;63.26
